Time;durP1;ratioP1;P1;durP2;ratioP2;P2;SDS_P1;SDS_P2;PMS_P1;PMS_P2;Temp;Humidity;BMP_temperature;BMP_pressure;BME280_temperature;BME280_humidity;BME280_pressure;Samples;Min_cycle;Max_cycle;Signal;HPM_P1;HPM_P2
2023/04/20 00:01:04;;;;;;;;;;;;;;;14.81;50.89;96462.41;4235000;28;5654;-77
2023/04/20 00:03:07;;;;;;;;;;;;;;;14.83;50.96;96452.34;4235905;28;5733;-76
2023/04/20 00:05:10;;;;;;;;;;;;;;;14.85;50.74;96455.63;4237987;28;5889;-78
2023/04/20 00:07:15;;;;;;;;;;;;;;;14.82;51.10;96453.41;4238153;28;6468;-78
2023/04/20 00:09:18;;;;;;;;;;;;;;;14.79;51.06;96453.84;4237983;28;5666;-76
2023/04/20 00:11:21;;;;;;;;;;;;;;;14.77;51.01;96448.78;4237918;27;5634;-74
2023/04/20 00:13:24;;;;;;;;;;;;;;;14.73;50.86;96441.47;4238321;28;6362;-77
2023/04/20 00:15:27;;;;;;;;;;;;;;;14.75;51.17;96442.06;4238143;27;5666;-76
2023/04/20 00:17:30;;;;;;;;;;;;;;;14.76;50.92;96431.19;4238141;28;5713;-76
2023/04/20 00:19:33;;;;;;;;;;;;;;;14.79;50.86;96430.72;4236913;28;5653;-77
2023/04/20 00:21:36;;;;;;;;;;;;;;;14.80;51.04;96429.69;4237560;28;5662;-76
2023/04/20 00:23:41;;;;;;;;;;;;;;;14.81;51.03;96428.63;4237536;28;5667;-75
2023/04/20 00:25:43;;;;;;;;;;;;;;;14.81;50.92;96422.50;4237691;28;5634;-76
2023/04/20 00:27:46;;;;;;;;;;;;;;;14.81;51.10;96427.81;4237526;28;5641;-76
2023/04/20 00:29:50;;;;;;;;;;;;;;;14.81;51.31;96418.00;4229216;28;5643;-76
2023/04/20 00:31:52;;;;;;;;;;;;;;;14.84;51.10;96416.75;4237586;28;6372;-76
2023/04/20 00:33:54;;;;;;;;;;;;;;;14.83;51.08;96412.44;4237847;28;5666;-75
2023/04/20 00:35:57;;;;;;;;;;;;;;;14.80;51.11;96404.91;4237426;28;5721;-76
2023/04/20 00:38:00;;;;;;;;;;;;;;;14.82;51.34;96400.16;4237322;28;5645;-76
2023/04/20 00:40:06;;;;;;;;;;;;;;;14.80;51.38;96395.09;4237244;28;5662;-76
2023/04/20 00:42:09;;;;;;;;;;;;;;;14.79;51.35;96396.13;4237448;28;5737;-76
2023/04/20 00:44:12;;;;;;;;;;;;;;;14.80;51.39;96397.75;4237220;28;5112;-76
2023/04/20 00:46:15;;;;;;;;;;;;;;;14.84;51.50;96390.94;4237183;28;7675;-74
2023/04/20 00:48:19;;;;;;;;;;;;;;;14.83;51.38;96391.16;4237397;28;5741;-75
2023/04/20 00:50:22;;;;;;;;;;;;;;;14.82;51.27;96392.19;4237418;28;5666;-76
2023/04/20 00:52:25;;;;;;;;;;;;;;;14.82;51.49;96392.19;4237255;27;5662;-76
2023/04/20 00:54:29;;;;;;;;;;;;;;;14.81;51.28;96388.72;4236636;28;5658;-75
2023/04/20 00:56:34;;;;;;;;;;;;;;;14.69;51.44;96382.56;4237392;28;5654;-76
2023/04/20 00:58:37;;;;;;;;;;;;;;;14.69;51.65;96389.75;4237121;28;5745;-78
2023/04/20 01:00:40;;;;;;;;;;;;;;;14.68;51.25;96388.94;4237340;28;5664;-77
2023/04/20 01:02:43;;;;;;;;;;;;;;;14.63;51.36;96393.34;4236802;28;5666;-75
2023/04/20 01:04:47;;;;;;;;;;;;;;;14.51;51.57;96388.78;4236558;28;5659;-76
2023/04/20 01:06:50;;;;;;;;;;;;;;;14.44;51.63;96385.41;4229131;28;5645;-77
2023/04/20 01:08:53;;;;;;;;;;;;;;;14.46;51.72;96383.34;4236708;28;5114;-76
2023/04/20 01:10:56;;;;;;;;;;;;;;;14.49;51.44;96388.19;4236961;27;5654;-75
2023/04/20 01:13:00;;;;;;;;;;;;;;;14.54;51.31;96391.00;4237019;28;5665;-77
2023/04/20 01:15:04;;;;;;;;;;;;;;;14.59;51.62;96392.16;4236842;27;5645;-77
2023/04/20 01:17:07;;;;;;;;;;;;;;;14.60;51.47;96388.44;4237039;28;5745;-78
2023/04/20 01:19:10;;;;;;;;;;;;;;;14.48;51.06;96386.56;4236365;28;5760;-76
2023/04/20 01:21:14;;;;;;;;;;;;;;;14.31;51.13;96382.09;4236603;28;5812;-77
2023/04/20 01:23:18;;;;;;;;;;;;;;;14.24;51.44;96387.50;4236659;28;5630;-75
2023/04/20 01:25:22;;;;;;;;;;;;;;;14.17;51.53;96390.28;4236589;28;5103;-75
2023/04/20 01:27:25;;;;;;;;;;;;;;;14.12;51.48;96384.00;4237076;27;5653;-77
2023/04/20 01:29:28;;;;;;;;;;;;;;;14.05;51.41;96384.09;4236596;28;5647;-76
2023/04/20 01:31:31;;;;;;;;;;;;;;;14.04;51.41;96369.16;4236828;28;5557;-78
2023/04/20 01:33:35;;;;;;;;;;;;;;;14.08;51.24;96364.22;4236110;27;7296;-77
2023/04/20 01:35:38;;;;;;;;;;;;;;;13.96;51.17;96367.66;4236869;28;5674;-78
2023/04/20 01:37:41;;;;;;;;;;;;;;;13.73;51.17;96367.53;4235240;28;5908;-78
2023/04/20 01:39:47;;;;;;;;;;;;;;;13.65;51.65;96370.47;4236197;28;6793;-76
2023/04/20 01:41:50;;;;;;;;;;;;;;;13.68;51.72;96364.72;4234844;28;5753;-77
2023/04/20 01:43:53;;;;;;;;;;;;;;;13.74;51.61;96363.84;4236535;28;5653;-76
2023/04/20 01:45:56;;;;;;;;;;;;;;;13.69;51.29;96361.03;4235992;28;5769;-77
2023/04/20 01:48:00;;;;;;;;;;;;;;;13.74;51.47;96358.53;4236481;28;5642;-78
2023/04/20 01:50:03;;;;;;;;;;;;;;;13.77;51.47;96351.94;4236112;27;6322;-77
2023/04/20 01:52:07;;;;;;;;;;;;;;;13.72;51.14;96360.59;4236107;28;6521;-77
2023/04/20 01:54:09;;;;;;;;;;;;;;;13.68;51.21;96359.41;4235704;28;5760;-78
2023/04/20 01:56:14;;;;;;;;;;;;;;;13.68;51.45;96352.25;4236454;28;5725;-78
2023/04/20 01:58:17;;;;;;;;;;;;;;;13.70;51.15;96349.38;4236215;27;5658;-77
2023/04/20 02:00:20;;;;;;;;;;;;;;;13.64;51.32;96350.28;4236410;28;5645;-77
2023/04/20 02:02:23;;;;;;;;;;;;;;;13.65;51.24;96357.19;4236679;28;5675;-78
2023/04/20 02:04:26;;;;;;;;;;;;;;;13.54;51.34;96348.13;4236029;28;5092;-78
2023/04/20 02:06:28;;;;;;;;;;;;;;;13.51;51.18;96347.78;4236458;28;5706;-77
2023/04/20 02:08:32;;;;;;;;;;;;;;;13.42;51.37;96347.25;4236216;27;5769;-76
2023/04/20 02:10:35;;;;;;;;;;;;;;;13.44;51.46;96347.84;4235627;28;5920;-77
2023/04/20 02:12:40;;;;;;;;;;;;;;;13.49;51.26;96347.19;4235144;28;5782;-77
2023/04/20 02:14:43;;;;;;;;;;;;;;;13.50;51.50;96346.16;4235758;28;5733;-77
2023/04/20 02:16:46;;;;;;;;;;;;;;;13.51;51.41;96347.78;4235163;28;5650;-76
2023/04/20 02:18:49;;;;;;;;;;;;;;;13.58;51.29;96340.53;4227606;28;5709;-77
2023/04/20 02:20:52;;;;;;;;;;;;;;;13.66;51.17;96340.22;4235702;28;6347;-76
2023/04/20 02:22:55;;;;;;;;;;;;;;;13.65;51.06;96342.06;4234633;28;5854;-76
2023/04/20 02:24:58;;;;;;;;;;;;;;;13.68;50.79;96338.16;4235187;28;5665;-77
2023/04/20 02:27:01;;;;;;;;;;;;;;;13.71;51.06;96337.72;4235650;27;5784;-77
2023/04/20 02:29:05;;;;;;;;;;;;;;;13.75;50.77;96338.91;4235740;28;5646;-78
2023/04/20 02:31:08;;;;;;;;;;;;;;;13.78;50.72;96337.63;4235559;27;6697;-77
2023/04/20 02:33:11;;;;;;;;;;;;;;;13.80;51.01;96335.56;4235592;27;5654;-76
2023/04/20 02:35:14;;;;;;;;;;;;;;;13.85;50.88;96339.19;4235731;28;5657;-76
2023/04/20 02:37:17;;;;;;;;;;;;;;;13.89;51.04;96339.53;4235583;28;5638;-78
2023/04/20 02:39:20;;;;;;;;;;;;;;;13.91;50.67;96335.59;4235679;28;5742;-78
2023/04/20 02:41:23;;;;;;;;;;;;;;;13.96;50.96;96338.41;4235729;28;5653;-77
2023/04/20 02:43:26;;;;;;;;;;;;;;;13.98;50.58;96333.69;4235035;28;5653;-75
2023/04/20 02:45:30;;;;;;;;;;;;;;;14.02;50.71;96327.91;4235589;28;5694;-77
2023/04/20 02:47:33;;;;;;;;;;;;;;;14.01;50.64;96328.94;4235627;28;5641;-78
2023/04/20 02:49:37;;;;;;;;;;;;;;;14.02;50.72;96333.22;4235353;28;5642;-77
2023/04/20 02:51:40;;;;;;;;;;;;;;;14.01;50.71;96331.59;4235163;28;5780;-76
2023/04/20 02:53:43;;;;;;;;;;;;;;;14.03;50.62;96334.84;4235250;28;5824;-77
2023/04/20 02:55:46;;;;;;;;;;;;;;;14.07;50.60;96336.03;4235381;28;5694;-76
2023/04/20 02:57:49;;;;;;;;;;;;;;;14.05;50.66;96338.91;4227185;28;5826;-77
2023/04/20 02:59:52;;;;;;;;;;;;;;;14.03;50.73;96332.19;4235338;28;6717;-77
2023/04/20 03:01:56;;;;;;;;;;;;;;;14.03;50.91;96334.84;4235521;28;5658;-75
2023/04/20 03:03:59;;;;;;;;;;;;;;;14.06;50.93;96337.06;4235032;28;5657;-78
2023/04/20 03:06:02;;;;;;;;;;;;;;;14.10;50.53;96324.94;4235306;28;5639;-77
2023/04/20 03:08:05;;;;;;;;;;;;;;;14.12;50.79;96322.84;4235077;27;5781;-78
2023/04/20 03:10:10;;;;;;;;;;;;;;;14.10;50.61;96322.28;4234095;28;5680;-76
2023/04/20 03:12:13;;;;;;;;;;;;;;;14.08;50.76;96314.53;4235313;28;5654;-77
2023/04/20 03:14:16;;;;;;;;;;;;;;;14.08;50.58;96319.03;4235644;28;5654;-76
2023/04/20 03:16:19;;;;;;;;;;;;;;;14.02;50.60;96318.09;4235100;28;6502;-76
2023/04/20 03:18:23;;;;;;;;;;;;;;;14.05;50.41;96327.47;4234266;28;5662;-75
2023/04/20 03:20:27;;;;;;;;;;;;;;;13.97;50.52;96323.28;4235760;28;5646;-76
2023/04/20 03:22:29;;;;;;;;;;;;;;;13.98;50.66;96323.03;4235387;28;5764;-77
2023/04/20 03:24:32;;;;;;;;;;;;;;;13.98;50.62;96320.38;4234171;28;5650;-75
2023/04/20 03:26:36;;;;;;;;;;;;;;;14.03;50.68;96324.22;4235030;28;5752;-75
2023/04/20 03:28:39;;;;;;;;;;;;;;;13.99;50.29;96322.00;4234377;28;5647;-76
2023/04/20 03:30:42;;;;;;;;;;;;;;;13.90;50.56;96319.88;4234751;28;5721;-76
2023/04/20 03:32:45;;;;;;;;;;;;;;;13.82;50.39;96313.06;4235414;27;5661;-75
2023/04/20 03:34:50;;;;;;;;;;;;;;;13.72;50.46;96312.78;4226682;28;5658;-77
2023/04/20 03:36:53;;;;;;;;;;;;;;;13.69;50.33;96314.03;4235196;27;5914;-76
2023/04/20 03:38:56;;;;;;;;;;;;;;;13.68;50.54;96317.72;4237775;28;5657;-78
2023/04/20 03:40:58;;;;;;;;;;;;;;;13.72;50.34;96320.75;4237480;28;6505;-76
2023/04/20 03:43:01;;;;;;;;;;;;;;;13.70;50.31;96314.84;4238255;28;5760;-76
2023/04/20 03:45:06;;;;;;;;;;;;;;;13.61;50.58;96318.84;4238419;28;5646;-77
2023/04/20 03:47:09;;;;;;;;;;;;;;;13.58;50.16;96316.63;4238269;27;5657;-78
2023/04/20 03:49:12;;;;;;;;;;;;;;;13.48;50.51;96311.03;4238201;28;5783;-77
2023/04/20 03:51:16;;;;;;;;;;;;;;;13.50;50.47;96319.59;4237726;28;6441;-76
2023/04/20 03:53:19;;;;;;;;;;;;;;;13.54;50.42;96315.47;4238078;28;5654;-77
2023/04/20 03:55:22;;;;;;;;;;;;;;;13.57;50.33;96310.50;4237100;28;5645;-77
2023/04/20 03:57:25;;;;;;;;;;;;;;;13.46;50.47;96308.59;4235444;28;5646;-77
2023/04/20 03:59:28;;;;;;;;;;;;;;;13.39;50.08;96314.00;4235025;28;5634;-77
2023/04/20 04:01:31;;;;;;;;;;;;;;;13.37;50.59;96310.75;4227953;28;6353;-76
2023/04/20 04:03:34;;;;;;;;;;;;;;;13.44;50.35;96307.19;4232584;28;5788;-76
2023/04/20 04:05:37;;;;;;;;;;;;;;;13.47;50.30;96314.72;4237404;28;5644;-75
2023/04/20 04:07:42;;;;;;;;;;;;;;;13.47;50.12;96312.06;4237648;28;5654;-76
2023/04/20 04:09:45;;;;;;;;;;;;;;;13.47;50.36;96309.41;4237560;28;5697;-76
2023/04/20 04:11:47;;;;;;;;;;;;;;;13.48;50.11;96309.22;4237349;28;5674;-76
2023/04/20 04:13:50;;;;;;;;;;;;;;;13.51;50.27;96306.09;4230607;28;5771;-77
2023/04/20 04:15:53;;;;;;;;;;;;;;;13.57;50.28;96305.19;4237141;28;5605;-77
2023/04/20 04:17:56;;;;;;;;;;;;;;;13.64;50.09;96313.09;4236832;28;5132;-75
2023/04/20 04:19:59;;;;;;;;;;;;;;;13.68;50.20;96308.94;4236464;28;5750;-76
2023/04/20 04:22:02;;;;;;;;;;;;;;;13.73;50.10;96305.63;4237387;28;5741;-77
2023/04/20 04:24:07;;;;;;;;;;;;;;;13.74;50.51;96310.72;4237583;28;5646;-77
2023/04/20 04:26:11;;;;;;;;;;;;;;;13.78;50.05;96303.91;4237773;28;5628;-77
2023/04/20 04:28:15;;;;;;;;;;;;;;;13.80;50.09;96304.47;4237551;28;5721;-76
2023/04/20 04:30:19;;;;;;;;;;;;;;;13.80;50.25;96307.13;4236707;27;5646;-76
2023/04/20 04:32:23;;;;;;;;;;;;;;;13.86;49.98;96308.09;4237271;27;5710;-76
2023/04/20 04:34:28;;;;;;;;;;;;;;;13.86;50.03;96302.78;4237135;27;5666;-77
2023/04/20 04:36:31;;;;;;;;;;;;;;;13.87;50.25;96302.56;4237092;28;5749;-77
2023/04/20 04:38:34;;;;;;;;;;;;;;;13.90;49.94;96299.44;4237125;28;5646;-75
2023/04/20 04:40:40;;;;;;;;;;;;;;;13.91;50.10;96306.38;4235600;27;5649;-77
2023/04/20 04:42:44;;;;;;;;;;;;;;;13.92;50.04;96302.69;4236964;28;6333;-77
2023/04/20 04:44:47;;;;;;;;;;;;;;;13.91;50.28;96298.41;4236676;28;5785;-76
2023/04/20 04:46:50;;;;;;;;;;;;;;;13.91;50.34;96306.38;4234984;28;5646;-77
2023/04/20 04:48:52;;;;;;;;;;;;;;;13.95;50.00;96301.44;4236210;27;5729;-76
2023/04/20 04:50:55;;;;;;;;;;;;;;;13.95;49.89;96302.25;4235539;28;5887;-78
2023/04/20 04:52:58;;;;;;;;;;;;;;;13.93;50.09;96312.31;4234735;28;5716;-79
2023/04/20 04:55:01;;;;;;;;;;;;;;;13.92;50.21;96308.00;4236166;28;5749;-76
2023/04/20 04:57:06;;;;;;;;;;;;;;;13.90;50.16;96315.38;4236487;28;5654;-76
2023/04/20 04:59:11;;;;;;;;;;;;;;;13.90;50.17;96314.56;4234716;27;5820;-77
2023/04/20 05:01:14;;;;;;;;;;;;;;;13.89;49.84;96312.97;4237216;27;5967;-78
2023/04/20 05:03:17;;;;;;;;;;;;;;;13.87;49.88;96309.72;4236397;28;5657;-78
2023/04/20 05:05:21;;;;;;;;;;;;;;;13.82;49.98;96310.41;4230613;28;5661;-78
2023/04/20 05:07:24;;;;;;;;;;;;;;;13.79;50.41;96312.69;4233648;28;5838;-77
2023/04/20 05:09:32;;;;;;;;;;;;;;;13.78;50.00;96311.88;4227039;28;5670;-76
2023/04/20 05:11:35;;;;;;;;;;;;;;;13.76;50.17;96308.63;4237108;27;5650;-78
2023/04/20 05:13:39;;;;;;;;;;;;;;;13.77;50.31;96312.09;4236952;28;5658;-78
2023/04/20 05:15:42;;;;;;;;;;;;;;;13.79;49.88;96308.19;4237035;28;5649;-76
2023/04/20 05:17:48;;;;;;;;;;;;;;;13.81;50.19;96316.72;4236606;28;5758;-77
2023/04/20 05:19:51;;;;;;;;;;;;;;;13.80;49.77;96320.44;4236072;28;5609;-73
2023/04/20 05:21:54;;;;;;;;;;;;;;;13.77;50.00;96320.06;4236303;27;6324;-73
2023/04/20 05:23:56;;;;;;;;;;;;;;;13.76;50.18;96313.13;4220076;28;6438;-73
2023/04/20 05:25:59;;;;;;;;;;;;;;;13.76;50.20;96313.94;4218897;28;5626;-74
2023/04/20 05:28:02;;;;;;;;;;;;;;;13.76;49.89;96311.28;4218992;28;5667;-73
2023/04/20 05:30:08;;;;;;;;;;;;;;;13.77;50.15;96314.75;4218887;28;5266;-74
2023/04/20 05:32:23;;;;;;;;;;;;;;;13.77;50.09;96314.75;4218728;28;5766;-73
2023/04/20 05:34:26;;;;;;;;;;;;;;;13.76;50.00;96305.97;4218309;28;5833;-73
2023/04/20 05:36:29;;;;;;;;;;;;;;;13.76;49.90;96307.81;4218733;28;5732;-73
2023/04/20 05:38:32;;;;;;;;;;;;;;;13.76;50.06;96303.31;4219079;28;5816;-73
2023/04/20 05:40:35;;;;;;;;;;;;;;;13.78;49.92;96301.25;4210473;28;5817;-73
2023/04/20 05:42:38;;;;;;;;;;;;;;;13.79;49.88;96302.88;4218270;28;6316;-73
2023/04/20 05:44:42;;;;;;;;;;;;;;;13.79;50.04;96304.72;4218849;28;5762;-73
2023/04/20 05:46:47;;;;;;;;;;;;;;;13.79;49.79;96296.75;4218374;28;5800;-72
2023/04/20 05:48:50;;;;;;;;;;;;;;;13.77;49.98;96299.63;4218518;28;5675;-72
2023/04/20 05:50:53;;;;;;;;;;;;;;;13.79;49.87;96294.91;4218580;28;5754;-73
2023/04/20 05:52:55;;;;;;;;;;;;;;;13.82;49.71;96297.13;4218416;28;5790;-74
2023/04/20 05:54:59;;;;;;;;;;;;;;;13.83;49.91;96297.94;4218546;28;5751;-73
2023/04/20 05:57:04;;;;;;;;;;;;;;;13.84;49.82;96302.22;4213620;28;5728;-73
2023/04/20 05:59:08;;;;;;;;;;;;;;;13.81;50.12;96300.78;4209976;28;5813;-75
2023/04/20 06:01:11;;;;;;;;;;;;;;;13.82;50.07;96297.13;4206351;28;5704;-74
2023/04/20 06:03:15;;;;;;;;;;;;;;;13.87;49.79;96302.56;4218251;28;5913;-72
2023/04/20 06:05:19;;;;;;;;;;;;;;;13.88;50.02;96306.84;4216186;28;5719;-72
2023/04/20 06:07:22;;;;;;;;;;;;;;;13.87;49.76;96299.91;4219276;28;5762;-71
2023/04/20 06:09:26;;;;;;;;;;;;;;;13.90;50.07;96294.13;4219250;28;5678;-72
2023/04/20 06:11:29;;;;;;;;;;;;;;;13.92;49.84;96302.69;4219327;28;5061;-73
2023/04/20 06:13:31;;;;;;;;;;;;;;;13.94;49.81;96300.63;4219134;28;5791;-73
2023/04/20 06:15:35;;;;;;;;;;;;;;;13.98;49.76;96295.66;4218605;28;5679;-72
2023/04/20 06:17:39;;;;;;;;;;;;;;;14.03;49.58;96297.63;4218420;28;5659;-73
2023/04/20 06:19:46;;;;;;;;;;;;;;;14.05;49.91;96301.72;4217404;28;5667;-73
2023/04/20 06:21:49;;;;;;;;;;;;;;;14.03;49.96;96293.13;4217854;28;6441;-72
2023/04/20 06:23:51;;;;;;;;;;;;;;;14.01;49.58;96294.41;4218418;28;5165;-72
2023/04/20 06:25:54;;;;;;;;;;;;;;;13.97;49.63;96294.84;4218351;28;5679;-73
2023/04/20 06:27:57;;;;;;;;;;;;;;;13.96;49.78;96297.75;4218137;28;5671;-73
2023/04/20 06:30:00;;;;;;;;;;;;;;;13.96;49.96;96290.59;4218064;28;5785;-73
2023/04/20 06:32:03;;;;;;;;;;;;;;;13.98;49.67;96291.16;4218398;28;5681;-72
2023/04/20 06:34:06;;;;;;;;;;;;;;;14.01;49.71;96294.41;4218397;28;5807;-73
2023/04/20 06:36:10;;;;;;;;;;;;;;;14.03;49.61;96289.66;4218541;28;5655;-73
2023/04/20 06:38:13;;;;;;;;;;;;;;;14.03;49.74;96294.97;4218795;28;5081;-72
2023/04/20 06:40:16;;;;;;;;;;;;;;;14.05;49.95;96292.94;4218886;28;5660;-73
2023/04/20 06:42:19;;;;;;;;;;;;;;;14.06;49.58;96281.25;4218703;28;5679;-73
2023/04/20 06:44:22;;;;;;;;;;;;;;;14.09;49.68;96292.22;4218933;28;6655;-73
2023/04/20 06:46:25;;;;;;;;;;;;;;;14.11;49.71;96295.47;4217793;28;5964;-73
2023/04/20 06:48:28;;;;;;;;;;;;;;;14.11;49.59;96292.81;4217442;28;5659;-72
2023/04/20 06:50:34;;;;;;;;;;;;;;;14.09;49.62;96286.09;4208864;28;5666;-72
2023/04/20 06:52:39;;;;;;;;;;;;;;;14.13;49.69;96284.59;4217713;28;5944;-72
2023/04/20 06:54:42;;;;;;;;;;;;;;;14.15;49.62;96288.66;4217596;28;5684;-72
2023/04/20 06:56:45;;;;;;;;;;;;;;;14.18;49.54;96282.09;4218411;28;5672;-72
2023/04/20 06:58:51;;;;;;;;;;;;;;;14.22;49.48;96277.94;4218069;28;5796;-72
2023/04/20 07:00:54;;;;;;;;;;;;;;;14.22;49.45;96280.59;4218170;28;5745;-72
2023/04/20 07:02:56;;;;;;;;;;;;;;;14.18;49.39;96284.75;4218208;28;5691;-73
2023/04/20 07:05:02;;;;;;;;;;;;;;;14.14;49.52;96276.41;4217825;28;5671;-73
2023/04/20 07:07:05;;;;;;;;;;;;;;;14.16;49.76;96273.53;4217765;28;5733;-72
2023/04/20 07:09:10;;;;;;;;;;;;;;;14.20;49.46;96264.06;4217422;28;5688;-73
2023/04/20 07:11:13;;;;;;;;;;;;;;;14.19;49.44;96259.78;4218029;28;5671;-73
2023/04/20 07:13:16;;;;;;;;;;;;;;;14.17;49.76;96265.34;4220961;28;5665;-73
2023/04/20 07:15:19;;;;;;;;;;;;;;;14.15;49.82;96264.72;4220805;28;5738;-72
2023/04/20 07:17:21;;;;;;;;;;;;;;;14.15;49.60;96258.59;4220869;28;5671;-72
2023/04/20 07:19:24;;;;;;;;;;;;;;;14.17;49.64;96262.69;4220556;28;5744;-72
2023/04/20 07:21:27;;;;;;;;;;;;;;;14.22;49.63;96261.97;4220553;28;5663;-72
2023/04/20 07:23:30;;;;;;;;;;;;;;;14.27;49.88;96270.09;4220892;28;5655;-72
2023/04/20 07:25:34;;;;;;;;;;;;;;;14.30;49.52;96266.97;4212516;28;5762;-73
2023/04/20 07:27:39;;;;;;;;;;;;;;;14.33;49.68;96265.69;4221157;28;5688;-73
2023/04/20 07:29:43;;;;;;;;;;;;;;;14.35;49.48;96263.59;4220772;28;5671;-73
2023/04/20 07:31:46;;;;;;;;;;;;;;;14.34;49.35;96275.28;4220737;28;5719;-73
2023/04/20 07:33:49;;;;;;;;;;;;;;;14.31;49.57;96273.91;4220326;28;6699;-72
2023/04/20 07:35:51;;;;;;;;;;;;;;;14.32;49.86;96269.38;4220782;28;5680;-72
2023/04/20 07:37:54;;;;;;;;;;;;;;;14.32;49.67;96264.06;4220187;28;5069;-72
2023/04/20 07:39:57;;;;;;;;;;;;;;;14.32;49.92;96270.19;4220594;28;5758;-73
2023/04/20 07:42:03;;;;;;;;;;;;;;;14.34;49.57;96269.97;4220542;28;5679;-72
2023/04/20 07:44:06;;;;;;;;;;;;;;;14.34;49.70;96268.13;4220690;28;5779;-72
2023/04/20 07:46:09;;;;;;;;;;;;;;;14.35;49.85;96269.72;4220277;28;5675;-72
2023/04/20 07:48:12;;;;;;;;;;;;;;;14.35;49.82;96269.72;4220363;28;5691;-72
2023/04/20 07:50:15;;;;;;;;;;;;;;;14.35;49.83;96272.41;4220011;28;5668;-72
2023/04/20 07:52:19;;;;;;;;;;;;;;;14.31;49.72;96270.44;4220192;28;5663;-73
2023/04/20 07:54:22;;;;;;;;;;;;;;;14.31;49.68;96276.56;4219896;28;5814;-72
2023/04/20 07:56:25;;;;;;;;;;;;;;;14.34;49.71;96272.63;4220428;28;5659;-73
2023/04/20 07:58:30;;;;;;;;;;;;;;;14.35;49.74;96269.72;4219999;28;5663;-73
2023/04/20 08:00:33;;;;;;;;;;;;;;;14.35;49.75;96269.72;4214525;28;5097;-72
2023/04/20 08:02:36;;;;;;;;;;;;;;;14.35;49.97;96269.72;4213515;28;5671;-72
2023/04/20 08:04:39;;;;;;;;;;;;;;;14.28;49.80;96269.06;4218809;28;5671;-72
2023/04/20 08:06:43;;;;;;;;;;;;;;;14.28;49.71;96263.72;4212961;28;5675;-72
2023/04/20 08:08:48;;;;;;;;;;;;;;;14.23;49.82;96266.25;4219544;28;5692;-72
2023/04/20 08:10:51;;;;;;;;;;;;;;;14.25;49.87;96269.47;4219733;28;5667;-72
2023/04/20 08:12:54;;;;;;;;;;;;;;;14.21;49.74;96263.00;4219086;28;5881;-72
2023/04/20 08:15:03;;;;;;;;;;;;;;;14.16;50.13;96255.75;4218455;28;5782;-72
2023/04/20 08:17:06;;;;;;;;;;;;;;;14.23;50.13;96259.09;4219689;28;6631;-71
2023/04/20 08:19:09;;;;;;;;;;;;;;;14.27;49.78;96262.13;4219208;28;5660;-73
2023/04/20 08:21:13;;;;;;;;;;;;;;;14.26;50.04;96265.78;4215949;28;5660;-72
2023/04/20 08:23:16;;;;;;;;;;;;;;;14.25;49.86;96264.97;4214299;28;5799;-72
2023/04/20 08:25:19;;;;;;;;;;;;;;;14.24;50.06;96265.22;4219534;28;5671;-72
2023/04/20 08:27:24;;;;;;;;;;;;;;;14.24;50.12;96259.88;4218388;28;5782;-72
2023/04/20 08:29:27;;;;;;;;;;;;;;;14.25;50.13;96269.47;4218376;28;5688;-71
2023/04/20 08:31:32;;;;;;;;;;;;;;;14.22;50.16;96273.41;4219214;28;5731;-71
2023/04/20 08:33:35;;;;;;;;;;;;;;;14.21;50.04;96274.47;4212897;28;5663;-71
2023/04/20 08:35:38;;;;;;;;;;;;;;;14.20;49.83;96278.16;4217670;28;5780;-72
2023/04/20 08:37:41;;;;;;;;;;;;;;;14.20;50.05;96282.66;4217402;28;5954;-71
2023/04/20 08:39:44;;;;;;;;;;;;;;;14.18;50.00;96274.91;4214573;28;5664;-71
2023/04/20 08:41:49;;;;;;;;;;;;;;;14.18;49.94;96284.75;4214021;28;6559;-72
2023/04/20 08:43:52;;;;;;;;;;;;;;;13.99;49.83;96287.47;4210863;28;5672;-71
2023/04/20 08:45:58;;;;;;;;;;;;;;;13.75;50.18;96280.44;4212964;28;5803;-71
2023/04/20 08:48:06;;;;;;;;;;;;;;;13.61;50.26;96279.00;4219294;28;5790;-72
2023/04/20 08:50:09;;;;;;;;;;;;;;;13.48;50.23;96282.66;4209855;28;5109;-72
2023/04/20 08:52:12;;;;;;;;;;;;;;;13.39;50.53;96282.16;4209217;28;6640;-72
2023/04/20 08:54:16;;;;;;;;;;;;;;;13.39;50.57;96290.09;4214061;28;5660;-71
2023/04/20 08:56:19;;;;;;;;;;;;;;;13.45;50.40;96290.22;4217118;28;5659;-71
2023/04/20 08:58:22;;;;;;;;;;;;;;;13.46;50.00;96283.88;4219055;28;5707;-72
2023/04/20 09:00:25;;;;;;;;;;;;;;;13.49;49.92;96281.63;4218646;28;5928;-72
2023/04/20 09:02:28;;;;;;;;;;;;;;;13.49;50.02;96286.94;4215310;28;5846;-72
2023/04/20 09:04:33;;;;;;;;;;;;;;;13.38;49.84;96288.50;4209535;28;5656;-71
2023/04/20 09:06:36;;;;;;;;;;;;;;;13.36;50.13;96287.91;4210604;28;5687;-71
2023/04/20 09:08:40;;;;;;;;;;;;;;;13.33;50.15;96295.47;4209038;28;5806;-70
2023/04/20 09:10:44;;;;;;;;;;;;;;;13.30;50.02;96288.78;4210087;28;5696;-71
2023/04/20 09:12:47;;;;;;;;;;;;;;;13.34;50.14;96297.91;4205764;28;5689;-71
2023/04/20 09:14:51;;;;;;;;;;;;;;;13.40;50.11;96294.38;4214153;28;5667;-70
2023/04/20 09:17:00;;;;;;;;;;;;;;;13.47;49.81;96290.81;4217148;28;5667;-70
2023/04/20 09:19:03;;;;;;;;;;;;;;;13.50;49.93;96296.50;4209683;28;5679;-71
2023/04/20 09:21:11;;;;;;;;;;;;;;;13.32;49.69;96296.53;4216718;28;5683;-71
2023/04/20 09:23:15;;;;;;;;;;;;;;;13.26;50.06;96292.94;4215767;28;5846;-71
2023/04/20 09:25:19;;;;;;;;;;;;;;;13.33;50.12;96296.28;4200260;28;5817;-71
2023/04/20 09:27:26;;;;;;;;;;;;;;;13.38;49.92;96293.81;4205988;28;5759;-71
2023/04/20 09:29:29;;;;;;;;;;;;;;;13.43;50.02;96287.00;4208202;28;5778;-72
2023/04/20 09:31:36;;;;;;;;;;;;;;;13.48;49.97;96284.47;4217024;28;5754;-71
2023/04/20 09:33:39;;;;;;;;;;;;;;;13.56;50.26;96286.81;4217078;28;5742;-77
2023/04/20 09:35:44;;;;;;;;;;;;;;;13.61;50.02;96286.97;4211263;28;5771;-78
2023/04/20 09:37:49;;;;;;;;;;;;;;;13.61;50.13;96294.94;4214263;28;5786;-78
2023/04/20 09:39:55;;;;;;;;;;;;;;;13.63;50.08;96300.84;4215325;28;5914;-78
2023/04/20 09:42:04;;;;;;;;;;;;;;;13.63;50.38;96306.16;4213231;28;5656;-77
2023/04/20 09:44:08;;;;;;;;;;;;;;;13.64;50.19;96299.81;4218582;28;5875;-77
2023/04/20 09:46:11;;;;;;;;;;;;;;;13.61;50.39;96300.25;4213195;28;5798;-78
2023/04/20 09:48:18;;;;;;;;;;;;;;;13.64;50.55;96291.84;4218348;28;5683;-77
2023/04/20 09:50:22;;;;;;;;;;;;;;;13.68;50.40;96304.44;4217753;28;5655;-79
2023/04/20 09:52:37;;;;;;;;;;;;;;;13.74;50.35;96299.28;4211303;28;5738;-71
2023/04/20 09:54:43;;;;;;;;;;;;;;;13.76;50.73;96291.88;4206446;28;5671;-70
2023/04/20 09:56:48;;;;;;;;;;;;;;;13.75;50.51;96291.06;4217779;28;5799;-71
2023/04/20 09:58:51;;;;;;;;;;;;;;;13.80;50.78;96285.88;4216740;28;5681;-70
2023/04/20 10:00:54;;;;;;;;;;;;;;;13.84;50.84;96279.09;4216558;28;5663;-70
2023/04/20 10:02:57;;;;;;;;;;;;;;;13.85;50.53;96286.03;4216486;28;5683;-70
2023/04/20 10:05:01;;;;;;;;;;;;;;;13.83;50.88;96282.81;4216087;28;5738;-70
2023/04/20 10:07:06;;;;;;;;;;;;;;;13.80;50.59;96285.06;4216604;28;5679;-70
2023/04/20 10:09:21;;;;;;;;;;;;;;;13.80;50.83;96277.09;4216222;28;5780;-70
2023/04/20 10:11:27;;;;;;;;;;;;;;;13.81;50.63;96287.50;4216558;28;5668;-70
2023/04/20 10:13:46;;;;;;;;;;;;;;;13.79;50.55;96286.13;4215985;28;5734;-71
2023/04/20 10:15:49;;;;;;;;;;;;;;;13.77;50.96;96283.69;4216415;28;5727;-70
2023/04/20 10:17:53;;;;;;;;;;;;;;;13.73;50.68;96287.03;4215915;28;5864;-71
2023/04/20 10:19:56;;;;;;;;;;;;;;;13.71;50.77;96287.25;4215759;28;5679;-71
2023/04/20 10:21:59;;;;;;;;;;;;;;;13.75;50.80;96291.06;4215835;28;6575;-71
2023/04/20 10:24:02;;;;;;;;;;;;;;;13.69;50.68;96286.66;4216107;28;5675;-71
2023/04/20 10:26:05;;;;;;;;;;;;;;;13.73;50.70;96290.50;4216025;28;5688;-71
2023/04/20 10:28:09;;;;;;;;;;;;;;;13.74;50.85;96286.81;4215467;28;5688;-71
2023/04/20 10:30:13;;;;;;;;;;;;;;;13.73;50.89;96297.66;4207703;28;5742;-71
2023/04/20 10:32:24;;;;;;;;;;;;;;;13.72;50.93;96293.38;4215734;28;5871;-71
2023/04/20 10:34:32;;;;;;;;;;;;;;;13.71;50.61;96295.22;4215411;28;6947;-70
2023/04/20 10:36:36;;;;;;;;;;;;;;;13.58;50.75;96296.19;4209282;28;5077;-72
2023/04/20 10:38:39;;;;;;;;;;;;;;;13.56;50.91;96292.13;4215946;28;5798;-72
2023/04/20 10:40:42;;;;;;;;;;;;;;;13.45;51.07;96292.88;4215808;28;6313;-72
2023/04/20 10:42:46;;;;;;;;;;;;;;;13.38;50.69;96293.81;4215791;28;5829;-71
2023/04/20 10:44:51;;;;;;;;;;;;;;;13.43;50.91;96297.63;4215601;28;5862;-72
2023/04/20 10:46:54;;;;;;;;;;;;;;;13.30;50.76;96293.28;4215451;28;5671;-72
2023/04/20 10:49:00;;;;;;;;;;;;;;;13.30;51.01;96298.59;4215469;28;5773;-72
2023/04/20 10:51:09;;;;;;;;;;;;;;;13.39;50.67;96289.28;4215566;28;5679;-72
2023/04/20 10:53:20;;;;;;;;;;;;;;;13.39;50.82;96287.44;4215804;28;5803;-71